This is the latest recevied weather packets stored in our database for station/object KD6VPH. If no packets are shown the sender has not sent any weather packets the latest 10 day(s).
| Time | Temp. | Humidity | Pressure | Rain* | Wind** | Luminosity | Snow |
|---|---|---|---|---|---|---|---|
| 1777671321 | 23.89° C | 53% | 1013.9 hPa | 0 mm | - | 900 W/m² | - |
| 1777670721 | 23.89° C | 52% | 1014 hPa | 0 mm | - | 1213 W/m² | - |
| 1777670121 | 23.89° C | 54% | 1014.2 hPa | 0 mm | - | 1179 W/m² | - |
| 1777669631 | 23.89° C | 55% | 1014 hPa | 0 mm | - | 1086 W/m² | - |
| 1777669521 | 23.89° C | 55% | 1014 hPa | 0 mm | - | 1086 W/m² | - |
| 1777668921 | 23.33° C | 53% | 1014.1 hPa | 0 mm | - | 1164 W/m² | - |
| 1777668321 | 22.78° C | 56% | 1014.2 hPa | 0 mm | - | 1220 W/m² | - |
| 1777667721 | 22.22° C | 57% | 1014.2 hPa | 0 mm | - | 738 W/m² | - |
| 1777667121 | 22.22° C | 56% | 1014.3 hPa | 0 mm | - | 744 W/m² | - |
| 1777666522 | 22.22° C | 56% | 1014.3 hPa | 0 mm | - | 626 W/m² | - |
| 1777665922 | 22.22° C | 55% | 1014.2 hPa | 0 mm | - | 1192 W/m² | - |
| 1777665322 | 21.67° C | 58% | 1014.2 hPa | 0 mm | - | 1162 W/m² | - |
| 1777664722 | 21.11° C | 57% | 1014.3 hPa | 0 mm | - | 529 W/m² | - |
| 1777664122 | 21.11° C | 58% | 1014.3 hPa | 0 mm | - | 710 W/m² | - |
| 1777663522 | 20.56° C | 58% | 1014.4 hPa | 0 mm | - | 1081 W/m² | - |
| 1777662922 | 20° C | 59% | 1014.6 hPa | 0 mm | - | 1190 W/m² | - |
| 1777662322 | 20° C | 59% | 1014.8 hPa | 0 mm | - | 559 W/m² | - |
| 1777661722 | 20° C | 61% | 1014.8 hPa | 0 mm | - | 1088 W/m² | - |
| 1777660522 | 19.44° C | 63% | 1014.8 hPa | 0 mm | - | 782 W/m² | - |
| 1777659922 | 18.89° C | 64% | 1014.7 hPa | 0 mm | - | 874 W/m² | - |
| 1777658722 | 17.78° C | 69% | 1014.9 hPa | 0 mm | - | 919 W/m² | - |
| 1777658122 | 17.22° C | 70% | 1014.9 hPa | 0 mm | - | 677 W/m² | - |
| 1777657522 | 16.67° C | 69% | 1014.9 hPa | 0 mm | - | 631 W/m² | - |
| 1777655722 | 15.56° C | 73% | 1014.9 hPa | 0 mm | - | 272 W/m² | - |
| 1777655134 | 15° C | 76% | 1015 hPa | 0 mm | - | 283 W/m² | - |
* Rain latest hour (hover to see other rain measurements)
** Current wind speed in m/s (hover to see current wind gust speed)